createdAt,value
2018-12-30T00:02:31.948Z,5.42
2018-12-30T00:06:41.443Z,5.48
2018-12-30T00:10:48.522Z,5.59
2018-12-30T00:14:56.631Z,5.71
2018-12-30T00:19:04.144Z,5.80
2018-12-30T00:23:11.217Z,5.88
2018-12-30T00:27:18.393Z,5.99
2018-12-30T00:31:25.520Z,6.06
2018-12-30T00:35:32.473Z,6.15
2018-12-30T00:39:39.850Z,6.22
2018-12-30T00:43:47.075Z,6.36
2018-12-30T00:47:54.606Z,6.38
2018-12-30T00:52:01.742Z,6.33
2018-12-30T00:56:10.326Z,6.37
2018-12-30T01:00:17.722Z,6.36
2018-12-30T01:04:25.010Z,6.37
2018-12-30T01:08:32.129Z,6.41
2018-12-30T01:12:39.153Z,6.52
2018-12-30T01:16:47.172Z,6.63
2018-12-30T01:20:54.308Z,6.63
2018-12-30T01:25:01.771Z,6.61
2018-12-30T01:29:08.961Z,6.72
2018-12-30T01:33:16.207Z,6.73
2018-12-30T01:37:23.390Z,6.90
2018-12-30T01:41:34.578Z,6.94
2018-12-30T01:45:42.044Z,6.99
2018-12-30T01:49:50.526Z,7.14
2018-12-30T01:53:57.622Z,7.13
2018-12-30T01:58:04.723Z,7.13
2018-12-30T02:02:11.900Z,7.17
2018-12-30T02:06:19.722Z,7.21
2018-12-30T02:10:26.758Z,7.25
2018-12-30T02:14:34.469Z,7.18
2018-12-30T02:18:41.789Z,7.28
2018-12-30T02:22:49.035Z,7.27
2018-12-30T02:26:56.331Z,7.32
2018-12-30T02:31:05.476Z,7.37
2018-12-30T02:35:12.510Z,7.41
2018-12-30T02:39:19.665Z,7.31
2018-12-30T02:43:27.001Z,7.43
2018-12-30T02:47:34.230Z,7.56
2018-12-30T02:51:50.070Z,7.54
2018-12-30T02:55:50.372Z,7.61
2018-12-30T02:59:57.584Z,7.64
2018-12-30T03:04:05.905Z,7.62
2018-12-30T03:08:13.102Z,7.60
2018-12-30T03:12:20.189Z,7.59
2018-12-30T03:16:27.221Z,7.60
2018-12-30T03:20:34.669Z,7.62
2018-12-30T03:24:41.683Z,7.62
2018-12-30T03:28:48.883Z,7.64
2018-12-30T03:32:56.071Z,7.61
2018-12-30T03:37:03.265Z,7.67
2018-12-30T03:41:10.127Z,7.45
2018-12-30T03:45:17.224Z,7.67
2018-12-30T03:49:24.558Z,7.70
2018-12-30T03:53:31.809Z,7.73
2018-12-30T03:57:38.847Z,7.70
2018-12-30T04:01:45.853Z,7.69
2018-12-30T04:05:53.156Z,7.73
2018-12-30T04:10:00.224Z,7.79
2018-12-30T04:14:08.933Z,7.75
2018-12-30T04:18:16.240Z,7.73
2018-12-30T04:22:23.501Z,7.77
2018-12-30T04:26:30.500Z,7.73
2018-12-30T04:30:37.489Z,7.74
2018-12-30T04:34:45.924Z,7.70
2018-12-30T04:38:52.941Z,7.83
2018-12-30T04:43:00.138Z,7.86
2018-12-30T04:47:07.168Z,7.81
2018-12-30T04:51:14.201Z,7.82
2018-12-30T04:55:21.108Z,7.78
2018-12-30T04:59:28.097Z,7.78
2018-12-30T05:03:35.264Z,7.83
2018-12-30T05:07:42.325Z,7.68
2018-12-30T05:11:53.394Z,7.71
2018-12-30T05:16:00.357Z,7.66
2018-12-30T05:20:08.417Z,7.48
2018-12-30T05:24:15.598Z,7.45
2018-12-30T05:28:22.880Z,7.47
2018-12-30T05:32:30.839Z,7.47
2018-12-30T05:36:38.230Z,7.49
2018-12-30T05:40:47.642Z,7.50
2018-12-30T05:44:54.771Z,7.46
2018-12-30T05:49:01.762Z,7.54
2018-12-30T05:53:11.636Z,7.50
2018-12-30T05:57:18.722Z,7.55
2018-12-30T06:01:26.079Z,7.52
2018-12-30T06:05:33.112Z,7.47
2018-12-30T06:09:41.399Z,7.48
2018-12-30T06:13:48.499Z,7.47
2018-12-30T06:17:55.386Z,7.42
2018-12-30T06:22:02.300Z,7.40
2018-12-30T06:26:09.699Z,7.44
2018-12-30T06:30:16.679Z,7.44
2018-12-30T06:34:29.435Z,7.37
2018-12-30T06:38:36.358Z,7.47
2018-12-30T06:42:43.606Z,7.37
2018-12-30T06:46:50.853Z,7.54
2018-12-30T06:50:58.037Z,7.47
2018-12-30T06:55:05.137Z,7.56
2018-12-30T06:59:12.438Z,7.59
2018-12-30T07:03:19.490Z,7.61
2018-12-30T07:07:26.989Z,7.60
2018-12-30T07:11:33.961Z,7.69
2018-12-30T07:15:41.213Z,7.58
2018-12-30T07:19:48.264Z,7.47
2018-12-30T07:23:55.899Z,7.61
2018-12-30T07:28:02.989Z,7.62
2018-12-30T07:32:10.068Z,7.66
2018-12-30T07:36:17.485Z,7.66
2018-12-30T07:40:24.773Z,7.63
2018-12-30T07:44:31.831Z,7.65
2018-12-30T07:48:38.906Z,7.70
2018-12-30T07:52:46.203Z,7.61
2018-12-30T07:56:53.318Z,7.53
2018-12-30T08:01:00.376Z,7.58
2018-12-30T08:05:07.828Z,7.70
2018-12-30T08:09:15.196Z,7.79
2018-12-30T08:13:22.464Z,7.79
2018-12-30T08:17:29.735Z,7.80
2018-12-30T08:21:37.033Z,7.81
2018-12-30T08:25:44.869Z,7.83
2018-12-30T08:29:55.067Z,7.89
2018-12-30T08:34:02.226Z,7.91
2018-12-30T08:38:09.418Z,7.89
2018-12-30T08:42:17.516Z,7.99
2018-12-30T08:46:25.731Z,8.21
2018-12-30T08:50:33.213Z,8.38
2018-12-30T08:54:40.225Z,8.33
2018-12-30T08:58:47.726Z,8.12
2018-12-30T09:02:54.912Z,8.23
2018-12-30T09:07:02.048Z,8.30
2018-12-30T09:11:11.367Z,8.19
2018-12-30T09:15:18.574Z,8.18
2018-12-30T09:19:25.924Z,8.19
2018-12-30T09:23:37.410Z,8.18
2018-12-30T09:27:43.105Z,8.34
2018-12-30T09:31:50.098Z,8.44
2018-12-30T09:35:57.048Z,8.25
2018-12-30T09:40:04.101Z,8.37
2018-12-30T09:44:14.650Z,8.29
2018-12-30T09:48:22.095Z,8.44
2018-12-30T09:52:29.037Z,8.38
2018-12-30T09:56:40.436Z,8.46
2018-12-30T10:00:48.771Z,8.45
2018-12-30T10:04:56.043Z,8.45
2018-12-30T10:09:04.615Z,8.68
2018-12-30T10:13:12.016Z,8.57
2018-12-30T10:17:20.729Z,8.89
2018-12-30T10:21:27.946Z,8.70
2018-12-30T10:25:35.912Z,8.71
2018-12-30T10:29:42.855Z,8.72
2018-12-30T10:33:53.071Z,8.57
2018-12-30T10:38:01.442Z,8.68
2018-12-30T10:42:09.287Z,8.70
2018-12-30T10:46:16.567Z,8.87
2018-12-30T10:50:26.131Z,8.80
2018-12-30T10:54:33.938Z,8.89
2018-12-30T10:58:43.991Z,8.77
2018-12-30T11:02:52.047Z,8.92
2018-12-30T11:06:59.918Z,8.97
2018-12-30T11:11:07.977Z,9.02
2018-12-30T11:15:20.253Z,8.98
2018-12-30T11:19:29.230Z,8.95
2018-12-30T11:23:39.061Z,8.86
2018-12-30T11:27:47.642Z,8.90
2018-12-30T11:31:55.883Z,8.89
2018-12-30T11:36:05.161Z,9.06
2018-12-30T11:40:13.571Z,8.96
2018-12-30T11:44:21.407Z,9.09
2018-12-30T11:48:28.360Z,9.23
2018-12-30T11:52:37.660Z,9.33
2018-12-30T11:56:45.044Z,9.25
2018-12-30T12:00:51.921Z,9.10
2018-12-30T12:04:59.095Z,9.14
2018-12-30T12:09:08.444Z,9.11
2018-12-30T12:13:15.715Z,9.21
2018-12-30T12:17:22.731Z,9.12
2018-12-30T12:21:29.859Z,9.03
2018-12-30T12:25:36.778Z,9.01
2018-12-30T12:29:43.870Z,9.01
2018-12-30T12:33:50.752Z,8.75
2018-12-30T12:37:58.692Z,8.84
2018-12-30T12:42:05.592Z,8.89
2018-12-30T12:46:12.471Z,8.82
2018-12-30T12:50:20.437Z,8.89
2018-12-30T12:54:32.060Z,8.72
2018-12-30T12:58:36.213Z,8.80
2018-12-30T13:02:43.169Z,8.79
2018-12-30T13:06:50.131Z,8.76
2018-12-30T13:10:59.522Z,8.74
2018-12-30T13:15:07.662Z,8.74
2018-12-30T13:19:16.724Z,8.74
2018-12-30T13:23:23.721Z,8.69
2018-12-30T13:27:30.842Z,8.62
2018-12-30T13:31:37.820Z,8.66
2018-12-30T13:35:44.782Z,8.62
2018-12-30T13:39:51.720Z,8.56
2018-12-30T13:43:58.891Z,8.57
2018-12-30T13:48:06.029Z,8.54
2018-12-30T13:52:14.026Z,8.49
2018-12-30T13:56:21.109Z,8.50
2018-12-30T14:00:28.270Z,8.51
2018-12-30T14:04:35.304Z,8.52
2018-12-30T14:08:45.949Z,8.44
2018-12-30T14:12:53.198Z,8.51
2018-12-30T14:17:00.149Z,8.40
2018-12-30T14:21:07.262Z,8.48
2018-12-30T14:25:14.529Z,8.38
2018-12-30T14:29:21.612Z,8.47
2018-12-30T14:33:28.813Z,8.51
2018-12-30T14:37:36.011Z,8.55
2018-12-30T14:41:42.966Z,8.51
2018-12-30T14:45:50.057Z,8.59
2018-12-30T14:49:57.143Z,8.54
2018-12-30T14:54:05.426Z,8.40
2018-12-30T14:58:12.442Z,8.45
2018-12-30T15:02:19.736Z,8.33
2018-12-30T15:06:26.791Z,8.41
2018-12-30T15:10:33.878Z,8.37
2018-12-30T15:14:40.908Z,8.35
2018-12-30T15:18:51.364Z,8.34
2018-12-30T15:23:00.124Z,8.34
2018-12-30T15:27:08.888Z,8.37
2018-12-30T15:31:15.821Z,8.35
2018-12-30T15:35:22.703Z,8.29
2018-12-30T15:39:32.809Z,8.27
2018-12-30T15:43:39.851Z,8.26
2018-12-30T15:47:46.739Z,8.36
2018-12-30T15:51:55.771Z,8.28
2018-12-30T15:56:02.707Z,8.19
2018-12-30T16:00:11.224Z,8.16
2018-12-30T16:04:20.411Z,8.17
2018-12-30T16:08:27.535Z,8.12
2018-12-30T16:12:34.530Z,8.13
2018-12-30T16:16:41.806Z,8.11
2018-12-30T16:20:52.292Z,8.08
2018-12-30T16:24:59.384Z,8.07
2018-12-30T16:29:06.428Z,8.03
2018-12-30T16:33:13.688Z,7.97
2018-12-30T16:37:22.519Z,7.98
2018-12-30T16:41:29.485Z,7.93
2018-12-30T16:45:36.656Z,7.94
2018-12-30T16:49:43.465Z,7.87
2018-12-30T16:53:50.463Z,7.86
2018-12-30T16:57:57.486Z,7.82
2018-12-30T17:02:04.884Z,7.83
2018-12-30T17:06:14.467Z,7.79
2018-12-30T17:10:21.579Z,7.74
2018-12-30T17:14:28.544Z,7.72
2018-12-30T17:18:36.073Z,7.73
2018-12-30T17:22:43.296Z,7.59
2018-12-30T17:26:52.144Z,7.51
2018-12-30T17:30:59.269Z,7.50
2018-12-30T17:35:09.273Z,7.52
2018-12-30T17:39:16.292Z,7.54
2018-12-30T17:43:26.879Z,7.52
2018-12-30T17:47:34.826Z,7.52
2018-12-30T17:51:41.891Z,7.55
2018-12-30T17:55:50.879Z,7.56
2018-12-30T17:59:57.627Z,7.53
2018-12-30T18:04:19.951Z,7.52
2018-12-30T18:08:26.970Z,7.57
2018-12-30T18:12:34.046Z,7.56
2018-12-30T18:16:41.051Z,7.56
2018-12-30T18:20:47.984Z,7.53
2018-12-30T18:24:54.929Z,7.54
2018-12-30T18:29:02.025Z,7.46
2018-12-30T18:33:09.951Z,7.61
2018-12-30T18:37:16.935Z,7.52
2018-12-30T18:41:23.959Z,7.48
2018-12-30T18:45:31.070Z,7.54
2018-12-30T18:49:38.739Z,7.48
2018-12-30T18:53:46.062Z,7.40
2018-12-30T18:57:53.285Z,7.41
2018-12-30T19:02:04.458Z,7.39
2018-12-30T19:06:13.879Z,7.40
2018-12-30T19:10:21.324Z,7.51
2018-12-30T19:14:28.904Z,7.48
2018-12-30T19:18:36.410Z,7.43
2018-12-30T19:22:43.948Z,7.46
2018-12-30T19:26:52.582Z,7.38
2018-12-30T19:31:00.154Z,7.40
2018-12-30T19:35:07.688Z,7.48
2018-12-30T19:39:16.871Z,7.36
2018-12-30T19:43:25.018Z,7.46
2018-12-30T19:47:32.766Z,7.35
2018-12-30T19:51:40.160Z,7.39
2018-12-30T19:55:48.739Z,7.31
2018-12-30T19:59:55.952Z,7.71
2018-12-30T20:04:03.088Z,7.87
2018-12-30T20:08:20.828Z,7.42
2018-12-30T20:12:27.990Z,7.35
2018-12-30T20:16:35.300Z,7.36
2018-12-30T20:20:42.471Z,7.36
2018-12-30T20:24:50.331Z,7.32
2018-12-30T20:28:57.529Z,7.17
2018-12-30T20:33:06.533Z,7.23
2018-12-30T20:37:14.170Z,7.26
2018-12-30T20:41:21.552Z,7.20
2018-12-30T20:45:29.115Z,7.13
2018-12-30T20:49:36.522Z,7.16
2018-12-30T20:53:43.555Z,7.16
2018-12-30T20:57:50.590Z,7.00
2018-12-30T21:01:59.437Z,7.14
2018-12-30T21:06:06.461Z,6.99
2018-12-30T21:10:13.883Z,7.07
2018-12-30T21:14:23.840Z,7.01
2018-12-30T21:18:32.724Z,6.90
2018-12-30T21:22:39.782Z,6.90
2018-12-30T21:26:46.908Z,6.98
2018-12-30T21:30:54.042Z,6.80
2018-12-30T21:35:01.164Z,6.87
2018-12-30T21:39:12.363Z,6.73
2018-12-30T21:43:19.580Z,6.76
2018-12-30T21:47:26.742Z,6.80
2018-12-30T21:51:33.836Z,6.78
2018-12-30T21:55:41.162Z,6.77
2018-12-30T21:59:52.086Z,6.81
2018-12-30T22:04:00.927Z,6.90
2018-12-30T22:08:11.685Z,6.82
2018-12-30T22:12:22.476Z,6.92
2018-12-30T22:16:29.716Z,6.75
2018-12-30T22:20:36.992Z,6.84
2018-12-30T22:24:45.553Z,6.79
2018-12-30T22:28:53.008Z,6.78
2018-12-30T22:33:00.404Z,6.74
2018-12-30T22:37:11.906Z,6.67
2018-12-30T22:41:19.698Z,6.71
2018-12-30T22:45:44.879Z,6.63
2018-12-30T22:49:54.225Z,6.62
2018-12-30T22:54:02.546Z,6.65
2018-12-30T22:58:13.992Z,6.55
2018-12-30T23:02:21.348Z,6.66
2018-12-30T23:06:28.798Z,6.63
2018-12-30T23:10:36.434Z,6.66
2018-12-30T23:14:43.467Z,6.65
2018-12-30T23:18:50.375Z,6.68
2018-12-30T23:22:59.360Z,6.68
2018-12-30T23:27:12.304Z,6.60
2018-12-30T23:31:19.412Z,6.55
2018-12-30T23:35:26.650Z,6.59
2018-12-30T23:39:33.739Z,6.66
2018-12-30T23:43:41.032Z,6.62
2018-12-30T23:47:48.037Z,6.62
2018-12-30T23:51:54.931Z,6.66
2018-12-30T23:56:02.979Z,6.66
